createdAt,value
2023-05-16T00:01:47.399Z,0
2023-05-16T00:11:47.309Z,0
2023-05-16T00:21:47.355Z,0
2023-05-16T00:31:47.172Z,0
2023-05-16T00:41:47.667Z,0
2023-05-16T00:51:47.406Z,0
2023-05-16T01:01:47.312Z,0
2023-05-16T01:11:47.241Z,0
2023-05-16T01:21:47.609Z,0
2023-05-16T01:31:47.289Z,0
2023-05-16T01:41:47.352Z,0
2023-05-16T01:51:47.492Z,0
2023-05-16T02:01:47.305Z,0
2023-05-16T02:11:47.709Z,0
2023-05-16T02:21:47.251Z,0
2023-05-16T02:31:47.727Z,0
2023-05-16T02:41:47.518Z,0
2023-05-16T02:51:47.670Z,0
2023-05-16T03:01:47.996Z,0
2023-05-16T03:11:47.424Z,0
2023-05-16T03:21:47.235Z,0
2023-05-16T03:31:47.419Z,0
2023-05-16T03:41:48.024Z,0
2023-05-16T03:51:47.327Z,0
2023-05-16T04:01:47.622Z,0.0293
2023-05-16T04:11:47.460Z,0.0293
2023-05-16T04:21:47.865Z,0.0293
2023-05-16T04:31:47.459Z,0.0293
2023-05-16T04:41:47.339Z,0.0293
2023-05-16T04:51:48.248Z,0.0293
2023-05-16T05:01:48.032Z,0.2249
2023-05-16T05:11:47.488Z,0.2249
2023-05-16T05:21:47.389Z,0.2249
2023-05-16T05:31:47.670Z,0.2249
2023-05-16T05:41:47.523Z,0.2249
2023-05-16T05:51:47.427Z,0.2249
2023-05-16T06:01:47.906Z,0.7333
2023-05-16T06:11:47.718Z,0.7333
2023-05-16T06:21:47.673Z,0.7333
2023-05-16T06:31:47.639Z,0.7333
2023-05-16T06:41:47.721Z,0.7333
2023-05-16T06:51:47.757Z,0.7333
2023-05-16T07:01:48.253Z,1.6817
2023-05-16T07:11:49.331Z,1.6817
2023-05-16T07:21:47.900Z,1.6817
2023-05-16T07:31:48.237Z,1.6817
2023-05-16T07:41:47.796Z,1.6817
2023-05-16T07:51:47.985Z,1.6817
2023-05-16T08:01:47.981Z,3.07
2023-05-16T08:11:48.005Z,3.07
2023-05-16T08:21:47.785Z,3.07
2023-05-16T08:31:47.932Z,3.07
2023-05-16T08:41:48.537Z,3.07
2023-05-16T08:51:48.254Z,3.07
2023-05-16T09:01:47.760Z,4.5953
2023-05-16T09:11:47.762Z,4.5953
2023-05-16T09:21:48.299Z,4.5953
2023-05-16T09:31:47.773Z,4.5953
2023-05-16T09:41:47.806Z,4.5953
2023-05-16T09:51:47.808Z,4.5953
2023-05-16T10:01:47.866Z,6.0521
2023-05-16T10:11:47.808Z,6.0521
2023-05-16T10:21:47.880Z,6.0521
2023-05-16T10:31:47.784Z,6.0521
2023-05-16T10:41:51.041Z,6.0521
2023-05-16T10:51:48.172Z,6.0521
2023-05-16T11:01:48.165Z,6.8929
2023-05-16T11:11:49.445Z,6.8929
2023-05-16T11:21:48.159Z,6.8929
2023-05-16T11:31:48.153Z,6.8929
2023-05-16T11:41:48.923Z,6.8929
2023-05-16T11:51:48.297Z,6.8929
2023-05-16T12:01:48.060Z,6.8929
2023-05-16T12:11:48.099Z,6.8929
2023-05-16T12:21:48.047Z,6.8929
2023-05-16T12:31:48.189Z,6.8929
2023-05-16T12:41:48.207Z,6.8929
2023-05-16T12:51:48.457Z,6.8929
2023-05-16T13:01:48.197Z,6.0521
2023-05-16T13:11:48.255Z,6.0521
2023-05-16T13:21:48.469Z,6.0521
2023-05-16T13:31:48.215Z,6.0521
2023-05-16T13:41:49.194Z,6.0521
2023-05-16T13:51:49.070Z,6.0521
2023-05-16T14:01:48.313Z,4.5953
2023-05-16T14:11:48.522Z,4.5953
2023-05-16T14:21:48.287Z,4.5953
2023-05-16T14:31:48.227Z,4.5953
2023-05-16T14:41:48.334Z,4.5953
2023-05-16T14:51:48.406Z,4.5953
2023-05-16T15:01:48.479Z,3.07
2023-05-16T15:11:48.463Z,3.07
2023-05-16T15:21:48.268Z,3.07
2023-05-16T15:31:48.315Z,3.07
2023-05-16T15:42:08.433Z,3.07
2023-05-16T15:51:48.246Z,3.07
2023-05-16T16:01:48.540Z,1.6817
2023-05-16T16:11:48.259Z,1.6817
2023-05-16T16:21:48.253Z,1.6817
2023-05-16T16:31:48.817Z,1.6817
2023-05-16T16:41:48.595Z,1.6817
2023-05-16T16:51:48.668Z,1.6817
2023-05-16T17:01:49.312Z,0.7333
2023-05-16T17:11:48.336Z,0.7333
2023-05-16T17:21:48.406Z,0.7333
2023-05-16T17:31:48.256Z,0.7333
2023-05-16T17:41:49.575Z,0.7333
2023-05-16T17:51:48.390Z,0.7333
2023-05-16T18:01:48.871Z,0.2249
2023-05-16T18:11:48.626Z,0.2249
2023-05-16T18:21:48.369Z,0.2249
2023-05-16T18:31:48.281Z,0.2249
2023-05-16T18:41:48.906Z,0.2249
2023-05-16T18:51:48.535Z,0.2249
2023-05-16T19:01:48.590Z,0.0391
2023-05-16T19:11:48.697Z,0.0391
2023-05-16T19:21:48.812Z,0.0391
2023-05-16T19:31:48.629Z,0.0391
2023-05-16T19:41:52.138Z,0.0391
2023-05-16T19:51:48.381Z,0.0391
2023-05-16T20:01:48.373Z,0
2023-05-16T20:11:49.165Z,0
2023-05-16T20:21:48.507Z,0
2023-05-16T20:31:48.313Z,0
2023-05-16T20:41:48.556Z,0
2023-05-16T20:51:48.532Z,0
2023-05-16T21:01:48.733Z,0
2023-05-16T21:11:49.316Z,0
2023-05-16T21:21:48.799Z,0
2023-05-16T21:31:48.570Z,0
2023-05-16T21:41:48.762Z,0
2023-05-16T21:51:48.407Z,0
2023-05-16T22:01:48.511Z,0
2023-05-16T22:11:48.684Z,0
2023-05-16T22:21:48.459Z,0
2023-05-16T22:31:48.886Z,0
2023-05-16T22:41:48.707Z,0
2023-05-16T22:51:48.641Z,0
2023-05-16T23:01:48.626Z,0
2023-05-16T23:11:49.306Z,0
2023-05-16T23:21:48.892Z,0
2023-05-16T23:31:49.652Z,0
2023-05-16T23:41:51.307Z,0
